Time;durP1;ratioP1;P1;durP2;ratioP2;P2;SDS_P1;SDS_P2;PMS_P1;PMS_P2;Temp;Humidity;BMP_temperature;BMP_pressure;BME280_temperature;BME280_humidity;BME280_pressure;Samples;Min_cycle;Max_cycle;Signal;HPM_P1;HPM_P2
2022/10/30 00:00:13;;;;;;;14.68;9.30;;;16.60;82.40;;;;;;5017078;28;20111;-58
2022/10/30 00:02:39;;;;;;;17.05;9.07;;;16.60;82.40;;;;;;5016188;28;20053;-58
2022/10/30 00:05:05;;;;;;;14.70;9.85;;;16.60;82.40;;;;;;5016028;28;20038;-57
2022/10/30 00:07:31;;;;;;;18.42;9.15;;;16.60;82.40;;;;;;5017102;28;20034;-58
2022/10/30 00:09:56;;;;;;;18.13;8.98;;;16.60;82.40;;;;;;5016381;28;20347;-58
2022/10/30 00:12:22;;;;;;;18.70;9.35;;;16.50;82.30;;;;;;5015567;28;20026;-58
2022/10/30 00:14:47;;;;;;;16.55;9.18;;;16.50;82.30;;;;;;5016099;28;20053;-58
2022/10/30 00:17:13;;;;;;;17.08;9.00;;;16.50;82.30;;;;;;5016018;28;20113;-59
2022/10/30 00:19:39;;;;;;;13.88;8.60;;;16.50;82.30;;;;;;5023918;28;20072;-57
2022/10/30 00:22:04;;;;;;;16.70;8.98;;;16.50;82.30;;;;;;5025397;28;20033;-58
2022/10/30 00:24:30;;;;;;;17.95;9.07;;;16.50;82.30;;;;;;5028795;28;20022;-59
2022/10/30 00:26:56;;;;;;;16.23;8.68;;;16.50;82.30;;;;;;5036219;28;20446;-58
2022/10/30 00:29:25;;;;;;;17.42;8.60;;;16.50;82.30;;;;;;5028524;28;20335;-58
2022/10/30 00:31:51;;;;;;;15.73;9.27;;;16.40;82.30;;;;;;5022360;28;20120;-58
2022/10/30 00:34:17;;;;;;;14.02;8.68;;;16.40;82.30;;;;;;5024246;28;20037;-58
2022/10/30 00:36:43;;;;;;;14.95;8.98;;;16.40;82.30;;;;;;5036034;28;20017;-58
2022/10/30 00:39:10;;;;;;;14.05;8.60;;;16.40;82.20;;;;;;5029098;28;20108;-59
2022/10/30 00:41:38;;;;;;;15.40;8.90;;;16.40;82.20;;;;;;5001091;28;20485;-58
2022/10/30 00:44:49;;;;;;;18.77;9.88;;;16.40;82.20;;;;;;5023500;28;20037;-58
2022/10/30 00:47:36;;;;;;;17.75;8.73;;;16.50;82.10;;;;;;5025185;28;20077;-59
2022/10/30 00:50:08;;;;;;;19.20;9.30;;;16.40;82.10;;;;;;5027983;28;20045;-58
2022/10/30 00:52:39;;;;;;;15.60;9.90;;;16.40;82.10;;;;;;5021396;28;20030;-58
2022/10/30 00:55:09;;;;;;;18.55;10.57;;;16.40;82.20;;;;;;5020245;28;20025;-59
2022/10/30 00:57:36;;;;;;;16.85;10.00;;;16.40;82.20;;;;;;5035293;28;20113;-59
2022/10/30 01:00:04;;;;;;;19.08;10.05;;;16.40;82.20;;;;;;5027596;28;20466;-59
2022/10/30 01:02:30;;;;;;;17.27;9.40;;;16.40;82.10;;;;;;5006911;28;20030;-59
2022/10/30 01:04:56;;;;;;;18.00;9.52;;;16.30;82.10;;;;;;5013890;28;20037;-59
2022/10/30 01:07:21;;;;;;;19.63;9.85;;;16.30;82.10;;;;;;5016430;28;20026;-58
2022/10/30 01:09:47;;;;;;;18.40;10.38;;;16.30;82.10;;;;;;5021147;28;20456;-58
2022/10/30 01:12:14;;;;;;;15.63;9.20;;;16.30;82.10;;;;;;5023041;28;20022;-59
2022/10/30 01:14:49;;;;;;;16.45;9.57;;;16.30;82.00;;;;;;5029657;28;20018;-59
2022/10/30 01:17:53;;;;;;;18.38;9.88;;;16.20;82.00;;;;;;5018433;28;20056;-58
2022/10/30 01:20:33;;;;;;;16.15;9.07;;;16.20;82.00;;;;;;5018075;28;20065;-58
2022/10/30 01:23:17;;;;;;;14.73;10.03;;;16.20;82.10;;;;;;5027979;28;20103;-57
2022/10/30 01:26:14;;;;;;;16.10;8.93;;;16.20;82.00;;;;;;5030453;28;20285;-58
2022/10/30 01:29:04;;;;;;;17.88;9.13;;;16.10;82.00;;;;;;5029484;28;20382;-59
2022/10/30 01:31:57;;;;;;;15.63;9.60;;;16.10;81.90;;;;;;5026331;28;20026;-59
2022/10/30 01:34:37;;;;;;;17.08;9.73;;;16.10;82.00;;;;;;5015214;28;20037;-59
2022/10/30 01:37:12;;;;;;;13.18;8.32;;;16.10;82.00;;;;;;5049950;28;20022;-58
2022/10/30 01:39:40;;;;;;;17.92;8.77;;;16.00;82.00;;;;;;5006957;28;20108;-58
2022/10/30 01:42:48;;;;;;;16.92;8.30;;;16.00;82.00;;;;;;5049773;28;20033;-58
2022/10/30 01:45:42;;;;;;;15.50;9.05;;;16.00;81.90;;;;;;4998115;28;20034;-58
2022/10/30 01:48:10;;;;;;;18.15;9.32;;;16.00;82.00;;;;;;4993333;28;20066;-59
2022/10/30 01:50:51;;;;;;;17.98;9.55;;;15.90;82.00;;;;;;4995946;28;20034;-57
2022/10/30 01:53:42;;;;;;;19.80;8.82;;;15.90;82.00;;;;;;4996627;28;20077;-56
2022/10/30 01:56:28;;;;;;;17.50;9.10;;;16.00;82.00;;;;;;4993078;28;20038;-58
2022/10/30 01:59:10;;;;;;;15.85;8.98;;;15.90;82.00;;;;;;4992403;28;20558;-58
2022/10/30 02:01:38;;;;;;;16.60;9.13;;;15.90;82.00;;;;;;4977113;28;20056;-57
2022/10/30 02:04:09;;;;;;;16.48;9.50;;;15.90;82.00;;;;;;4989904;28;20116;-59
2022/10/30 02:06:39;;;;;;;14.13;9.25;;;15.90;82.00;;;;;;4992064;28;20110;-58
2022/10/30 02:09:05;;;;;;;16.90;9.43;;;15.90;82.00;;;;;;4986312;28;20062;-58
2022/10/30 02:11:32;;;;;;;17.95;9.45;;;15.80;82.00;;;;;;4994630;28;20037;-58
2022/10/30 02:14:02;;;;;;;18.10;9.07;;;15.80;82.00;;;;;;5003768;28;20116;-58
2022/10/30 02:16:29;;;;;;;14.98;9.52;;;15.80;82.00;;;;;;4992401;28;20034;-58
2022/10/30 02:18:55;;;;;;;14.00;9.27;;;15.80;82.00;;;;;;4995514;28;20050;-57
2022/10/30 02:21:20;;;;;;;16.75;9.45;;;15.80;82.00;;;;;;5003286;28;20099;-57
2022/10/30 02:23:46;;;;;;;20.25;10.18;;;15.80;82.00;;;;;;5027581;28;20080;-56
2022/10/30 02:26:12;;;;;;;16.52;9.25;;;15.80;81.90;;;;;;5029381;28;20036;-58
2022/10/30 02:28:37;;;;;;;16.77;9.68;;;15.80;82.00;;;;;;5029424;28;20033;-58
2022/10/30 02:31:03;;;;;;;14.65;8.88;;;15.70;81.90;;;;;;5030766;28;20026;-57
2022/10/30 02:33:29;;;;;;;19.92;10.10;;;15.70;81.90;;;;;;5031884;28;20464;-57
2022/10/30 02:35:54;;;;;;;13.52;9.05;;;15.70;82.00;;;;;;5025458;28;20024;-57
2022/10/30 02:38:20;;;;;;;15.48;8.85;;;15.70;82.00;;;;;;5033116;28;20022;-58
2022/10/30 02:40:47;;;;;;;17.40;8.98;;;15.70;82.00;;;;;;5024588;28;20025;-52
2022/10/30 02:43:12;;;;;;;17.42;9.82;;;15.70;82.00;;;;;;5017392;28;20080;-56
2022/10/30 02:45:38;;;;;;;14.38;8.38;;;15.70;82.00;;;;;;5021668;28;20070;-57
2022/10/30 02:48:04;;;;;;;15.40;9.50;;;15.70;82.00;;;;;;5033209;28;20434;-57
2022/10/30 02:50:30;;;;;;;18.77;9.40;;;15.60;81.90;;;;;;5029291;28;20017;-56
2022/10/30 02:52:57;;;;;;;14.43;9.35;;;15.60;82.00;;;;;;5032865;28;20031;-58
2022/10/30 02:55:23;;;;;;;13.43;8.50;;;15.60;82.80;;;;;;5020834;28;20029;-55
2022/10/30 02:57:50;;;;;;;15.75;8.40;;;15.60;83.40;;;;;;5029939;28;20022;-57
2022/10/30 03:00:16;;;;;;;15.32;9.00;;;15.60;83.70;;;;;;5039138;28;20466;-57
2022/10/30 03:02:42;;;;;;;17.35;9.15;;;15.60;84.10;;;;;;5036728;28;20040;-58
2022/10/30 03:05:08;;;;;;;16.45;9.85;;;15.60;84.50;;;;;;5028099;28;20358;-58
2022/10/30 03:07:34;;;;;;;14.95;9.73;;;15.50;84.80;;;;;;5023765;28;20075;-57
2022/10/30 03:09:59;;;;;;;13.98;8.73;;;15.50;85.10;;;;;;5033185;28;20060;-58
2022/10/30 03:12:25;;;;;;;15.15;8.98;;;15.50;85.30;;;;;;5031808;28;20029;-56
2022/10/30 03:14:51;;;;;;;15.40;8.27;;;15.50;85.80;;;;;;5041361;28;20021;-58
2022/10/30 03:17:16;;;;;;;14.52;9.02;;;15.50;85.80;;;;;;5000956;28;20026;-57
2022/10/30 03:19:42;;;;;;;15.93;9.07;;;15.50;85.80;;;;;;5027192;28;20056;-58
2022/10/30 03:22:08;;;;;;;14.50;9.20;;;15.50;85.80;;;;;;5030230;28;20026;-58
2022/10/30 03:24:37;;;;;;;15.88;8.48;;;15.50;85.80;;;;;;5029331;28;20413;-58
2022/10/30 03:27:03;;;;;;;16.65;9.32;;;15.40;85.70;;;;;;5030577;28;20136;-58
2022/10/30 03:29:29;;;;;;;16.05;8.93;;;15.40;85.70;;;;;;5030720;28;20113;-58
2022/10/30 03:31:55;;;;;;;16.17;9.73;;;15.40;85.70;;;;;;5041644;28;20072;-59
2022/10/30 03:34:22;;;;;;;13.35;8.65;;;15.40;85.60;;;;;;5027604;28;20120;-58
2022/10/30 03:36:47;;;;;;;17.10;8.55;;;15.40;85.60;;;;;;5030025;28;20049;-58
2022/10/30 03:39:13;;;;;;;14.23;8.40;;;15.40;85.40;;;;;;5021692;28;20041;-56
2022/10/30 03:41:42;;;;;;;14.30;8.60;;;15.30;85.30;;;;;;5013520;28;20033;-58
2022/10/30 03:44:08;;;;;;;15.57;8.50;;;15.30;85.10;;;;;;5022119;28;20037;-54
2022/10/30 03:46:34;;;;;;;13.63;8.73;;;15.30;85.10;;;;;;5022521;28;20442;-55
2022/10/30 03:49:19;;;;;;;15.25;9.10;;;15.30;85.00;;;;;;5035442;28;20034;-58
2022/10/30 03:51:45;;;;;;;15.65;8.18;;;15.30;84.90;;;;;;5029118;28;20041;-58
2022/10/30 03:54:11;;;;;;;12.57;8.00;;;15.30;84.80;;;;;;5024757;28;20478;-58
2022/10/30 03:56:37;;;;;;;13.40;8.63;;;15.20;84.70;;;;;;5025350;28;20025;-57
2022/10/30 03:59:03;;;;;;;17.98;8.43;;;15.20;84.60;;;;;;5023995;28;20095;-57
2022/10/30 04:01:29;;;;;;;13.95;7.90;;;15.30;84.60;;;;;;5027889;28;20455;-59
2022/10/30 04:03:56;;;;;;;13.75;7.93;;;15.20;84.40;;;;;;5031025;28;20037;-58
2022/10/30 04:06:23;;;;;;;13.55;8.52;;;15.20;84.40;;;;;;5016042;28;20022;-58
2022/10/30 04:08:49;;;;;;;13.55;8.40;;;15.20;84.30;;;;;;5024502;28;20032;-58
2022/10/30 04:11:15;;;;;;;13.18;8.10;;;15.20;84.20;;;;;;5029061;28;20328;-57
2022/10/30 04:13:42;;;;;;;14.05;8.13;;;15.20;84.40;;;;;;5021921;28;20028;-58
2022/10/30 04:16:07;;;;;;;12.65;7.30;;;15.20;84.40;;;;;;5027814;28;20022;-58
2022/10/30 04:18:33;;;;;;;12.57;8.07;;;15.20;84.20;;;;;;5028107;28;20354;-58
2022/10/30 04:20:59;;;;;;;13.05;8.05;;;15.20;84.20;;;;;;5033483;28;20044;-59
2022/10/30 04:23:25;;;;;;;12.55;8.00;;;15.10;84.00;;;;;;5015043;28;20040;-58
2022/10/30 04:25:51;;;;;;;12.48;7.90;;;15.20;84.20;;;;;;5033760;28;20070;-58
2022/10/30 04:28:17;;;;;;;15.00;7.95;;;15.10;84.20;;;;;;5024046;28;20052;-58
2022/10/30 04:30:44;;;;;;;15.18;8.43;;;15.10;84.40;;;;;;5035540;28;20454;-56
2022/10/30 04:33:12;;;;;;;14.93;8.45;;;15.10;84.40;;;;;;5021331;28;20025;-58
2022/10/30 04:35:39;;;;;;;15.35;8.20;;;15.10;84.30;;;;;;5028571;28;20136;-57
2022/10/30 04:38:14;;;;;;;13.73;7.40;;;15.10;84.20;;;;;;5016311;28;20022;-56
2022/10/30 04:40:42;;;;;;;;;;;15.10;84.10;;;;;;5017833;28;20108;-58
2022/10/30 04:43:09;;;;;;;15.50;7.60;;;15.10;84.30;;;;;;5035586;28;19967;-58
2022/10/30 04:45:35;;;;;;;13.63;7.80;;;15.00;84.30;;;;;;5029749;28;20037;-58
2022/10/30 04:48:13;;;;;;;15.77;8.65;;;15.10;84.20;;;;;;5021495;28;20022;-58
2022/10/30 04:50:41;;;;;;;14.18;8.35;;;15.00;84.00;;;;;;5018502;28;20030;-58
2022/10/30 04:53:16;;;;;;;13.20;7.80;;;15.00;84.00;;;;;;5024726;28;20022;-52
2022/10/30 04:55:44;;;;;;;13.73;8.13;;;15.00;83.90;;;;;;5019792;28;20029;-57
2022/10/30 04:58:11;;;;;;;13.25;7.57;;;15.00;83.90;;;;;;5015155;28;20014;-58
2022/10/30 05:00:39;;;;;;;16.23;8.07;;;15.00;83.80;;;;;;5020071;28;20029;-57
2022/10/30 05:03:23;;;;;;;14.82;8.02;;;15.00;83.80;;;;;;5020533;28;20383;-57
2022/10/30 05:05:57;;;;;;;15.43;8.68;;;15.00;83.70;;;;;;5025094;28;20022;-58
2022/10/30 05:08:23;;;;;;;13.13;7.95;;;15.00;83.60;;;;;;5014326;28;20032;-58
2022/10/30 05:10:49;;;;;;;13.55;8.38;;;14.90;83.70;;;;;;5019973;28;20104;-57
2022/10/30 05:13:15;;;;;;;13.98;8.38;;;14.90;83.60;;;;;;5016033;28;20018;-57
2022/10/30 05:15:41;;;;;;;15.30;8.70;;;14.90;83.50;;;;;;5019833;28;20018;-58
2022/10/30 05:18:07;;;;;;;13.43;8.55;;;14.90;83.50;;;;;;5011120;28;20033;-56
2022/10/30 05:20:33;;;;;;;12.15;7.85;;;14.90;83.50;;;;;;5003731;28;20034;-57
2022/10/30 05:22:59;;;;;;;17.77;9.10;;;14.90;83.50;;;;;;5001851;28;20129;-58
2022/10/30 05:25:26;;;;;;;16.23;8.68;;;14.80;84.00;;;;;;4996621;28;20026;-57
2022/10/30 05:28:00;;;;;;;14.27;7.95;;;14.80;83.40;;;;;;5018991;28;20122;-58
2022/10/30 05:30:27;;;;;;;14.13;7.72;;;14.80;83.20;;;;;;5019212;28;21102;-59
2022/10/30 05:32:58;;;;;;;14.77;8.18;;;14.80;83.30;;;;;;5010569;28;20104;-55
2022/10/30 05:35:24;;;;;;;13.57;7.35;;;14.80;83.10;;;;;;5001793;28;20080;-59
2022/10/30 05:37:49;;;;;;;14.30;8.60;;;14.80;83.20;;;;;;5011032;28;20085;-57
2022/10/30 05:40:16;;;;;;;12.65;7.93;;;14.80;83.20;;;;;;5028100;28;20030;-58
2022/10/30 05:42:48;;;;;;;19.27;8.50;;;14.80;83.10;;;;;;5027699;28;20026;-58
2022/10/30 05:45:15;;;;;;;13.90;8.32;;;14.80;83.00;;;;;;5011073;28;20030;-58
2022/10/30 05:47:42;;;;;;;14.80;8.13;;;14.80;83.10;;;;;;5006901;28;20026;-56
2022/10/30 05:50:08;;;;;;;14.30;8.10;;;14.80;83.00;;;;;;5013276;28;20030;-57
2022/10/30 05:52:35;;;;;;;15.07;7.95;;;14.80;83.70;;;;;;5012393;28;20104;-58
2022/10/30 05:55:01;;;;;;;17.02;9.05;;;14.70;83.00;;;;;;5008169;28;20038;-58
2022/10/30 05:57:40;;;;;;;13.43;8.43;;;14.80;83.00;;;;;;5015042;28;20351;-59
2022/10/30 06:00:07;;;;;;;14.82;8.25;;;14.70;82.90;;;;;;5009974;28;20113;-58
2022/10/30 06:02:40;;;;;;;15.88;8.70;;;14.70;82.90;;;;;;5013417;28;20033;-58
2022/10/30 06:05:06;;;;;;;16.17;7.75;;;14.70;82.80;;;;;;5012553;28;20359;-57
2022/10/30 06:07:32;;;;;;;13.98;8.38;;;14.70;82.80;;;;;;5012502;28;20026;-58
2022/10/30 06:09:58;;;;;;;14.02;8.10;;;14.70;82.70;;;;;;5012541;28;20026;-57
2022/10/30 06:12:37;;;;;;;13.32;8.27;;;14.70;82.70;;;;;;5012815;28;20049;-58
2022/10/30 06:15:17;;;;;;;14.03;8.13;;;14.70;82.70;;;;;;5010118;28;20088;-58
2022/10/30 06:17:43;;;;;;;15.10;8.50;;;14.70;82.70;;;;;;5026328;28;20402;-57
2022/10/30 06:20:14;;;;;;;18.10;8.25;;;14.60;82.70;;;;;;5029617;28;20050;-56
2022/10/30 06:23:03;;;;;;;14.00;7.95;;;14.70;82.70;;;;;;5006618;28;20048;-58
2022/10/30 06:25:58;;;;;;;14.50;8.00;;;14.60;82.50;;;;;;5042122;28;20100;-58
2022/10/30 06:28:33;;;;;;;13.30;8.10;;;14.60;82.60;;;;;;5024272;28;20032;-57
2022/10/30 06:30:59;;;;;;;14.82;8.40;;;14.60;82.70;;;;;;5035990;28;20037;-57
2022/10/30 06:33:25;;;;;;;14.73;8.30;;;14.60;82.60;;;;;;5046032;28;20026;-58
2022/10/30 06:35:51;;;;;;;13.27;7.68;;;14.60;82.60;;;;;;5020896;28;20459;-58
2022/10/30 06:38:18;;;;;;;15.32;8.85;;;14.60;82.60;;;;;;5046749;28;20029;-59
2022/10/30 06:40:44;;;;;;;14.07;8.73;;;14.60;82.60;;;;;;5024013;28;20064;-59
2022/10/30 06:43:30;;;;;;;14.45;8.68;;;14.60;82.60;;;;;;5025418;28;20029;-58
2022/10/30 06:46:03;;;;;;;16.30;8.90;;;14.60;82.50;;;;;;5045864;28;20436;-58
2022/10/30 06:48:30;;;;;;;13.55;7.68;;;14.60;82.50;;;;;;5046250;28;20029;-59
2022/10/30 06:50:57;;;;;;;15.68;7.53;;;14.60;82.40;;;;;;5025495;28;20099;-59
2022/10/30 06:53:25;;;;;;;14.27;8.10;;;14.60;82.40;;;;;;5027815;28;20038;-59
2022/10/30 06:55:55;;;;;;;15.18;8.05;;;14.60;82.30;;;;;;5015697;28;20054;-59
2022/10/30 06:58:41;;;;;;;14.10;7.70;;;14.60;82.30;;;;;;5043552;28;20029;-58
2022/10/30 07:01:09;;;;;;;15.63;8.75;;;14.60;82.30;;;;;;5033381;28;20041;-59
2022/10/30 07:03:58;;;;;;;14.27;8.10;;;14.60;82.30;;;;;;5034837;28;20351;-59
2022/10/30 07:06:24;;;;;;;13.25;8.73;;;14.60;82.30;;;;;;5031655;28;20116;-59
2022/10/30 07:08:50;;;;;;;14.27;8.10;;;14.60;82.30;;;;;;5036187;28;20128;-59
2022/10/30 07:11:16;;;;;;;14.00;8.00;;;14.60;82.30;;;;;;5005441;28;20029;-60
2022/10/30 07:14:01;;;;;;;16.95;7.82;;;14.60;82.20;;;;;;5012613;28;20036;-59
2022/10/30 07:16:43;;;;;;;15.00;8.48;;;14.70;82.30;;;;;;5025822;28;20094;-59
2022/10/30 07:19:09;;;;;;;13.02;8.23;;;14.70;82.20;;;;;;5035945;28;20489;-59
2022/10/30 07:21:36;;;;;;;14.05;8.07;;;14.70;82.20;;;;;;5021105;28;20439;-59
2022/10/30 07:24:05;;;;;;;14.00;7.55;;;14.70;82.10;;;;;;5020488;28;20341;-59
2022/10/30 07:26:41;;;;;;;15.90;8.25;;;14.70;82.10;;;;;;5013389;28;20030;-59
2022/10/30 07:29:25;;;;;;;25.20;8.50;;;14.80;82.10;;;;;;5006153;28;20095;-59
2022/10/30 07:32:12;;;;;;;13.95;8.45;;;14.80;82.10;;;;;;5019862;28;20315;-59
2022/10/30 07:34:56;;;;;;;12.40;7.70;;;14.80;82.10;;;;;;5016779;28;20103;-59
2022/10/30 07:37:49;;;;;;;14.60;8.10;;;14.80;82.10;;;;;;5022629;28;20120;-59
2022/10/30 07:40:16;;;;;;;16.60;7.88;;;14.80;82.10;;;;;;5034225;28;20026;-59
2022/10/30 07:43:01;;;;;;;15.00;8.25;;;14.90;82.20;;;;;;5020501;28;20040;-59
2022/10/30 07:45:45;;;;;;;13.65;8.60;;;14.90;82.20;;;;;;5019221;28;20048;-59
2022/10/30 07:48:29;;;;;;;14.45;8.15;;;14.90;82.10;;;;;;5032393;28;20103;-59
2022/10/30 07:51:15;;;;;;;13.05;7.28;;;15.00;82.10;;;;;;5036592;28;20430;-59
2022/10/30 07:53:40;;;;;;;15.25;8.32;;;15.00;82.10;;;;;;5037204;28;20057;-59
2022/10/30 07:56:08;;;;;;;15.90;8.57;;;15.10;82.20;;;;;;5035413;28;20378;-59
2022/10/30 07:59:08;;;;;;;15.85;8.70;;;15.10;82.10;;;;;;5036428;28;20029;-58
2022/10/30 08:02:03;;;;;;;14.15;8.52;;;15.10;82.20;;;;;;5016720;28;20041;-59
2022/10/30 08:04:42;;;;;;;14.30;9.13;;;15.10;82.20;;;;;;5031549;28;20359;-59
2022/10/30 08:07:30;;;;;;;14.85;9.48;;;15.10;82.30;;;;;;5026167;28;20048;-59
2022/10/30 08:09:55;;;;;;;16.98;9.50;;;15.20;82.40;;;;;;5018063;28;20435;-59
2022/10/30 08:12:21;;;;;;;13.77;8.93;;;15.20;82.40;;;;;;5035406;28;20021;-59
2022/10/30 08:14:48;;;;;;;14.20;9.25;;;15.30;82.40;;;;;;5008158;28;20453;-59
2022/10/30 08:17:13;;;;;;;14.73;8.27;;;15.30;82.40;;;;;;5035048;28;20104;-59
2022/10/30 08:19:39;;;;;;;19.20;9.80;;;15.40;82.40;;;;;;5035409;28;20041;-59
2022/10/30 08:22:07;;;;;;;14.57;9.55;;;15.40;82.40;;;;;;5035293;28;20029;-58
2022/10/30 08:24:35;;;;;;;15.63;9.57;;;15.50;82.50;;;;;;5035216;28;20029;-58
2022/10/30 08:27:01;;;;;;;18.27;9.98;;;15.50;82.40;;;;;;5018480;28;20292;-59
2022/10/30 08:29:26;;;;;;;16.52;9.82;;;15.60;82.50;;;;;;5022285;28;20509;-59
2022/10/30 08:31:52;;;;;;;16.77;10.93;;;15.60;82.30;;;;;;5025179;28;20108;-59
2022/10/30 08:34:21;;;;;;;14.13;10.00;;;15.70;82.30;;;;;;5035892;28;20056;-58
2022/10/30 08:36:51;;;;;;;18.65;12.07;;;15.80;82.20;;;;;;5035201;28;20062;-58
2022/10/30 08:39:18;;;;;;;19.00;11.75;;;15.90;82.10;;;;;;5036045;28;20033;-59
2022/10/30 08:41:51;;;;;;;18.50;11.43;;;16.00;82.00;;;;;;5035116;28;20030;-58
2022/10/30 08:44:18;;;;;;;17.58;11.15;;;16.10;81.80;;;;;;5016928;28;20034;-59
2022/10/30 08:47:04;;;;;;;18.70;11.10;;;16.10;81.70;;;;;;5013002;28;20048;-58
2022/10/30 08:49:30;;;;;;;21.50;11.50;;;16.20;81.60;;;;;;5034743;28;20053;-59
2022/10/30 08:51:57;;;;;;;17.70;11.15;;;16.30;81.50;;;;;;5033536;28;20041;-59
2022/10/30 08:54:23;;;;;;;17.48;11.38;;;16.40;81.40;;;;;;5035429;28;20083;-58
2022/10/30 08:56:49;;;;;;;17.10;10.52;;;16.50;81.30;;;;;;5034642;28;20079;-59
2022/10/30 08:59:15;;;;;;;18.00;11.18;;;16.60;81.20;;;;;;5034800;28;20056;-58
2022/10/30 09:01:41;;;;;;;25.08;12.13;;;16.60;81.20;;;;;;5021519;28;20034;-58
2022/10/30 09:04:15;;;;;;;20.40;11.60;;;16.60;81.10;;;;;;5024728;28;20042;-59
2022/10/30 09:06:43;;;;;;;19.98;12.10;;;16.60;81.00;;;;;;5035259;28;20041;-59
2022/10/30 09:09:35;;;;;;;18.42;11.25;;;16.70;81.00;;;;;;5033630;28;20366;-58
2022/10/30 09:12:02;;;;;;;17.77;11.77;;;16.80;80.90;;;;;;5034035;28;20465;-59
2022/10/30 09:14:31;;;;;;;19.65;11.05;;;16.80;80.70;;;;;;5034254;28;20089;-59
2022/10/30 09:16:58;;;;;;;18.60;11.07;;;16.90;80.70;;;;;;5025452;28;20092;-59
2022/10/30 09:19:24;;;;;;;16.08;11.23;;;17.00;80.40;;;;;;5032633;28;20485;-58
2022/10/30 09:21:49;;;;;;;18.60;10.65;;;17.00;80.20;;;;;;5050802;28;20108;-58
2022/10/30 09:24:15;;;;;;;17.33;11.50;;;17.10;80.00;;;;;;5034014;28;20040;-58
2022/10/30 09:26:50;;;;;;;18.95;11.43;;;17.20;79.90;;;;;;5034094;28;20029;-58
2022/10/30 09:29:20;;;;;;;14.88;10.20;;;17.30;79.60;;;;;;5033909;28;20038;-58
2022/10/30 09:32:08;;;;;;;14.63;11.02;;;17.40;79.30;;;;;;5032493;28;20041;-58
2022/10/30 09:34:39;;;;;;;18.42;10.65;;;17.50;79.00;;;;;;5032391;28;20362;-59
2022/10/30 09:37:13;;;;;;;17.60;9.45;;;17.70;78.80;;;;;;5033833;28;20026;-59
2022/10/30 09:39:42;;;;;;;18.85;10.13;;;17.80;78.60;;;;;;5034067;28;20382;-59
2022/10/30 09:42:35;;;;;;;16.83;10.98;;;18.00;78.40;;;;;;5034125;28;20121;-59
2022/10/30 09:45:16;;;;;;;16.10;10.23;;;18.20;78.00;;;;;;5033878;28;20033;-58
2022/10/30 09:48:14;;;;;;;21.55;10.60;;;18.30;77.60;;;;;;5014024;28;20454;-59
2022/10/30 09:51:08;;;;;;;15.48;9.52;;;18.50;77.20;;;;;;5019623;28;20057;-59
2022/10/30 09:54:04;;;;;;;15.52;9.63;;;18.70;76.90;;;;;;5012510;28;20075;-62
2022/10/30 09:56:40;;;;;;;14.43;9.57;;;18.90;76.60;;;;;;5024529;28;20022;-59
2022/10/30 09:59:31;;;;;;;16.67;10.30;;;19.10;76.30;;;;;;5030545;28;20466;-59
2022/10/30 10:02:02;;;;;;;15.43;9.55;;;19.30;75.80;;;;;;5033307;28;20179;-59
2022/10/30 10:04:49;;;;;;;16.58;9.90;;;19.50;75.60;;;;;;5019373;28;20053;-59
2022/10/30 10:07:49;;;;;;;15.07;9.27;;;19.60;75.20;;;;;;5029477;28;20098;-59
2022/10/30 10:10:38;;;;;;;16.00;10.18;;;19.70;74.70;;;;;;5033467;28;20037;-59
2022/10/30 10:13:42;;;;;;;15.70;9.85;;;19.80;74.50;;;;;;5027490;28;20052;-59
2022/10/30 10:16:30;;;;;;;18.00;10.88;;;19.90;74.20;;;;;;5025330;28;20068;-59
2022/10/30 10:19:18;;;;;;;15.77;11.25;;;19.90;74.00;;;;;;5019538;28;20096;-59
2022/10/30 10:21:56;;;;;;;18.80;11.07;;;19.80;74.10;;;;;;5017114;28;20036;-59
2022/10/30 10:24:28;;;;;;;18.55;10.60;;;19.60;74.30;;;;;;5018200;28;20022;-59
2022/10/30 10:27:15;;;;;;;16.00;9.75;;;19.60;74.50;;;;;;5018545;28;20025;-59
2022/10/30 10:30:00;;;;;;;18.38;9.43;;;19.70;74.40;;;;;;5017498;28;20026;-59
2022/10/30 10:32:38;;;;;;;14.30;8.82;;;19.80;74.10;;;;;;5015280;28;20032;-59
2022/10/30 10:35:42;;;;;;;15.25;9.77;;;19.90;73.90;;;;;;5018753;28;20167;-58
2022/10/30 10:38:23;;;;;;;15.90;9.85;;;20.10;73.80;;;;;;4983673;28;20030;-59
2022/10/30 10:41:00;;;;;;;14.88;9.02;;;20.10;73.60;;;;;;4978589;28;20037;-59
2022/10/30 10:43:40;;;;;;;16.77;9.13;;;20.10;73.60;;;;;;4974954;28;20042;-59
2022/10/30 10:46:08;;;;;;;16.50;10.18;;;20.00;73.60;;;;;;4979718;28;20062;-58
2022/10/30 10:49:07;;;;;;;17.60;10.27;;;19.90;73.90;;;;;;4973720;28;20030;-59
2022/10/30 10:51:39;;;;;;;13.60;8.90;;;19.80;74.10;;;;;;4977911;28;20092;-59
2022/10/30 10:54:42;;;;;;;16.58;9.82;;;19.90;74.20;;;;;;4972963;28;20129;-59
2022/10/30 10:57:19;;;;;;;15.23;9.00;;;19.90;74.10;;;;;;4954592;28;20074;-59
2022/10/30 10:59:51;;;;;;;15.98;10.45;;;20.00;74.00;;;;;;4978783;28;20162;-59
2022/10/30 11:02:38;;;;;;;14.45;9.15;;;20.00;73.90;;;;;;4975436;28;20460;-59
2022/10/30 11:05:16;;;;;;;16.75;9.70;;;20.00;73.90;;;;;;4990391;28;20065;-59
2022/10/30 11:07:49;;;;;;;16.67;9.75;;;20.00;73.80;;;;;;4991092;28;20030;-59
2022/10/30 11:10:18;;;;;;;16.00;10.35;;;20.00;73.70;;;;;;4996366;28;20113;-59
2022/10/30 11:12:44;;;;;;;16.48;9.95;;;20.10;73.70;;;;;;5013519;28;20451;-59
2022/10/30 11:15:25;;;;;;;15.82;8.68;;;20.10;73.60;;;;;;5006004;28;20026;-59
2022/10/30 11:18:02;;;;;;;14.23;8.63;;;20.30;73.50;;;;;;4999682;28;20092;-59
2022/10/30 11:20:39;;;;;;;18.48;8.98;;;20.30;73.30;;;;;;5016653;28;20184;-58
2022/10/30 11:23:37;;;;;;;14.27;9.35;;;20.40;73.20;;;;;;5006787;28;20040;-59
2022/10/30 11:26:24;;;;;;;13.75;9.07;;;20.50;73.00;;;;;;5007014;28;20041;-59
2022/10/30 11:28:51;;;;;;;15.43;9.25;;;20.40;73.00;;;;;;5021036;28;20029;-59
2022/10/30 11:31:17;;;;;;;16.80;9.40;;;20.40;73.00;;;;;;5015489;28;20022;-58
2022/10/30 11:33:42;;;;;;;18.60;9.43;;;20.40;72.90;;;;;;5016727;28;20080;-59
2022/10/30 11:36:09;;;;;;;14.68;8.68;;;20.40;72.90;;;;;;5013099;28;20064;-60
2022/10/30 11:38:34;;;;;;;18.45;9.80;;;20.40;72.90;;;;;;5011399;28;20060;-58
2022/10/30 11:41:01;;;;;;;16.63;9.68;;;20.30;72.90;;;;;;5014691;28;20312;-59
2022/10/30 11:43:27;;;;;;;15.15;9.68;;;20.30;72.90;;;;;;5009907;28;20088;-59
2022/10/30 11:45:53;;;;;;;17.02;9.35;;;20.30;73.00;;;;;;5004648;28;20030;-59
2022/10/30 11:48:26;;;;;;;17.10;10.48;;;20.40;73.00;;;;;;5003868;28;20026;-58
2022/10/30 11:51:02;;;;;;;16.52;9.05;;;20.30;72.90;;;;;;4999616;28;20045;-59
2022/10/30 11:53:37;;;;;;;15.98;9.30;;;20.30;72.90;;;;;;5012120;28;20037;-58
2022/10/30 11:56:18;;;;;;;14.32;8.75;;;20.30;72.90;;;;;;5009483;28;20062;-60
2022/10/30 11:58:48;;;;;;;14.68;9.43;;;20.30;72.90;;;;;;5015479;28;20292;-59
2022/10/30 12:01:25;;;;;;;12.85;8.95;;;20.40;72.80;;;;;;5016627;28;20021;-59
2022/10/30 12:03:52;;;;;;;18.75;9.48;;;20.30;72.80;;;;;;5013390;28;20041;-59
2022/10/30 12:06:18;;;;;;;16.27;9.93;;;20.30;72.80;;;;;;5010947;28;20517;-59
2022/10/30 12:09:10;;;;;;;15.27;9.13;;;20.30;72.90;;;;;;5011436;28;20076;-59
2022/10/30 12:11:38;;;;;;;14.93;9.38;;;20.30;73.00;;;;;;5011830;28;20033;-59
2022/10/30 12:14:04;;;;;;;20.77;9.35;;;20.20;73.10;;;;;;5011361;28;20392;-58
2022/10/30 12:16:31;;;;;;;14.45;8.25;;;20.20;73.30;;;;;;5013153;28;20028;-59
2022/10/30 12:19:03;;;;;;;17.80;9.75;;;20.10;73.40;;;;;;5012557;28;20102;-59
2022/10/30 12:21:42;;;;;;;17.08;9.48;;;20.10;73.40;;;;;;5015434;28;20060;-59
2022/10/30 12:24:29;;;;;;;13.00;8.75;;;20.10;73.50;;;;;;5011998;28;20031;-59
2022/10/30 12:26:55;;;;;;;17.05;9.20;;;20.10;73.60;;;;;;5011685;28;20037;-59
2022/10/30 12:29:25;;;;;;;18.67;9.80;;;20.10;73.70;;;;;;5013203;28;20037;-59
2022/10/30 12:32:00;;;;;;;15.88;8.60;;;20.10;73.60;;;;;;5012560;28;20034;-59
2022/10/30 12:34:55;;;;;;;18.30;9.23;;;20.00;73.50;;;;;;5010690;28;20121;-59
2022/10/30 12:37:37;;;;;;;16.45;7.90;;;20.00;73.50;;;;;;5012701;28;20022;-62
2022/10/30 12:40:17;;;;;;;;;;;20.00;73.60;;;;;;5016259;28;20652;-59
2022/10/30 12:43:01;;;;;;;15.23;7.72;;;20.00;73.80;;;;;;5009401;28;19917;-59
2022/10/30 12:45:43;;;;;;;15.20;8.15;;;19.90;73.70;;;;;;5010790;28;20038;-59
2022/10/30 12:48:27;;;;;;;13.43;7.95;;;19.90;73.70;;;;;;5013027;28;20478;-59
2022/10/30 12:51:22;;;;;;;16.08;8.13;;;19.90;73.80;;;;;;5010162;28;20091;-59
2022/10/30 12:53:57;;;;;;;15.40;8.02;;;19.90;73.90;;;;;;5009999;28;20033;-59
2022/10/30 12:56:44;;;;;;;13.50;7.70;;;19.90;73.90;;;;;;5025952;28;20072;-59
2022/10/30 12:59:28;;;;;;;14.27;7.28;;;19.90;73.80;;;;;;5009271;28;20087;-59
2022/10/30 13:02:00;;;;;;;14.57;7.65;;;19.90;73.90;;;;;;5010685;28;20865;-59
2022/10/30 13:04:34;;;;;;;14.93;7.70;;;19.90;73.90;;;;;;5017944;28;20080;-59